Terminal Aerodrome Forecast
Issued by NWS

Home | Current Version | Previous Version | Graphics & Text | Print | Product List | Glossary On
Versions: 1 2 3 4 5 6 7 8 9 10 11 12 13 14 15
000
FTUS43 KGRB 210908 AAA
TAFATW
TAF AMD
KATW 210908Z 2109/2206 21010G16KT P6SM SCT015 BKN040
      TEMPO 2109/2111 SCT005 BKN010
     FM211100 26010G17KT P6SM SCT015 BKN020
     FM211500 27007KT P6SM SCT012 BKN250
     FM211900 22008KT P6SM FEW250=

USA.gov is the U.S. government's official web portal to all federal, state and local government web resources and services.